Time;durP1;ratioP1;P1;durP2;ratioP2;P2;SDS_P1;SDS_P2;PMS_P1;PMS_P2;Temp;Humidity;BMP_temperature;BMP_pressure;BME280_temperature;BME280_humidity;BME280_pressure;Samples;Min_cycle;Max_cycle;Signal;HPM_P1;HPM_P2
2022/03/16 00:01:39;;;;;;;3.92;2.33;;;;;;;;;;1731335;82;21044;-69
2022/03/16 00:04:05;;;;;;;5.37;2.77;;;;;;;;;;1731364;82;21103;-70
2022/03/16 00:06:32;;;;;;;5.62;3.00;;;;;;;;;;1731233;82;21607;-69
2022/03/16 00:09:00;;;;;;;4.40;2.40;;;;;;;;;;1731318;83;21492;-69
2022/03/16 00:11:26;;;;;;;3.80;2.05;;;;;;;;;;1731507;82;21099;-70
2022/03/16 00:13:53;;;;;;;4.75;2.37;;;;;;;;;;1731322;83;21036;-70
2022/03/16 00:16:20;;;;;;;4.47;2.55;;;;;;;;;;1731434;82;21492;-70
2022/03/16 00:18:46;;;;;;;4.97;2.65;;;;;;;;;;1731096;83;21119;-69
2022/03/16 00:21:13;;;;;;;4.05;2.47;;;;;;;;;;1731520;83;21068;-69
2022/03/16 00:23:42;;;;;;;3.33;2.22;;;;;;;;;;1731088;83;21009;-68
2022/03/16 00:26:08;;;;;;;2.52;2.00;;;;;;;;;;1731042;82;21033;-69
2022/03/16 00:28:35;;;;;;;2.92;2.15;;;;;;;;;;1731054;83;21044;-69
2022/03/16 00:31:02;;;;;;;5.22;2.30;;;;;;;;;;1731382;83;21048;-70
2022/03/16 00:33:29;;;;;;;5.65;2.75;;;;;;;;;;1731206;82;21518;-71
2022/03/16 00:35:56;;;;;;;3.30;2.33;;;;;;;;;;1731447;83;21107;-70
2022/03/16 00:38:23;;;;;;;4.60;2.65;;;;;;;;;;1731142;82;21099;-70
2022/03/16 00:40:50;;;;;;;4.55;2.40;;;;;;;;;;1731394;82;21033;-69
2022/03/16 00:43:16;;;;;;;4.97;2.40;;;;;;;;;;1730930;82;21880;-69
2022/03/16 00:45:44;;;;;;;4.40;2.17;;;;;;;;;;1730990;82;21569;-69
2022/03/16 00:48:10;;;;;;;6.00;2.42;;;;;;;;;;1731271;82;21029;-70
2022/03/16 00:50:37;;;;;;;3.75;2.08;;;;;;;;;;1731222;83;21064;-69
2022/03/16 00:53:04;;;;;;;3.77;2.30;;;;;;;;;;1731417;83;21036;-69
2022/03/16 00:55:31;;;;;;;4.37;2.30;;;;;;;;;;1731082;82;21540;-70
2022/03/16 00:57:57;;;;;;;4.75;2.72;;;;;;;;;;1731525;83;21072;-69
2022/03/16 01:03:33;;;;;;;5.55;2.62;;;;;;;;;;1730331;80;72291;-70
2022/03/16 01:06:01;;;;;;;4.20;1.98;;;;;;;;;;1724903;83;21038;-70
2022/03/16 01:08:28;;;;;;;3.67;2.17;;;;;;;;;;1724652;83;21011;-71
2022/03/16 01:10:55;;;;;;;4.05;2.40;;;;;;;;;;1724676;83;21122;-70
2022/03/16 01:13:21;;;;;;;3.60;2.33;;;;;;;;;;1725020;83;21066;-70
2022/03/16 01:15:48;;;;;;;5.08;2.47;;;;;;;;;;1724856;83;21094;-71
2022/03/16 01:18:16;;;;;;;3.67;2.42;;;;;;;;;;1724801;83;21039;-71
2022/03/16 01:20:42;;;;;;;2.58;2.00;;;;;;;;;;1724657;83;21526;-71
2022/03/16 01:23:12;;;;;;;4.50;2.22;;;;;;;;;;1725011;83;21054;-71
2022/03/16 01:25:39;;;;;;;5.10;2.00;;;;;;;;;;1724657;83;21057;-71
2022/03/16 01:28:05;;;;;;;2.35;1.90;;;;;;;;;;1724780;83;21098;-71
2022/03/16 01:30:32;;;;;;;2.75;2.37;;;;;;;;;;1724537;83;21054;-72
2022/03/16 01:32:59;;;;;;;2.90;2.08;;;;;;;;;;1725189;83;21077;-72
2022/03/16 01:35:25;;;;;;;3.87;1.80;;;;;;;;;;1724825;83;21065;-71
2022/03/16 01:37:52;;;;;;;2.35;1.80;;;;;;;;;;1724686;83;21054;-72
2022/03/16 01:40:19;;;;;;;5.03;2.55;;;;;;;;;;1724796;83;22081;-71
2022/03/16 01:42:45;;;;;;;4.45;2.35;;;;;;;;;;1724871;83;21049;-73
2022/03/16 01:45:11;;;;;;;4.80;2.20;;;;;;;;;;1724907;83;21061;-72
2022/03/16 01:47:37;;;;;;;4.28;2.02;;;;;;;;;;1724817;83;21014;-72
2022/03/16 01:50:04;;;;;;;3.35;2.12;;;;;;;;;;1725026;83;21038;-72
2022/03/16 01:52:32;;;;;;;3.55;1.98;;;;;;;;;;1725016;83;21034;-72
2022/03/16 01:55:02;;;;;;;3.80;2.35;;;;;;;;;;1724859;83;20991;-72
2022/03/16 01:57:26;;;;;;;3.25;2.42;;;;;;;;;;1724503;83;21054;-72
2022/03/16 01:59:53;;;;;;;3.85;2.27;;;;;;;;;;1724706;83;21066;-72
2022/03/16 02:02:20;;;;;;;3.17;2.00;;;;;;;;;;1724471;83;21065;-71
2022/03/16 02:04:46;;;;;;;2.87;1.60;;;;;;;;;;1715921;83;21577;-72
2022/03/16 02:07:13;;;;;;;1.42;1.32;;;;;;;;;;1713311;84;21103;-71
2022/03/16 02:09:41;;;;;;;3.27;2.33;;;;;;;;;;1687254;84;21057;-71
2022/03/16 02:12:09;;;;;;;5.35;2.47;;;;;;;;;;1713520;84;21040;-72
2022/03/16 02:14:37;;;;;;;3.33;1.80;;;;;;;;;;1713008;84;21068;-72
2022/03/16 02:17:05;;;;;;;2.90;1.87;;;;;;;;;;1713448;84;21057;-71
2022/03/16 02:21:15;;;;;;;3.80;1.90;;;;;;;;;;1801910;79;23599;-69
2022/03/16 02:23:43;;;;;;;3.17;2.00;;;;;;;;;;1761711;81;21087;-69
2022/03/16 02:26:12;;;;;;;3.20;2.15;;;;;;;;;;1761923;81;21544;-68
2022/03/16 02:28:40;;;;;;;3.08;2.35;;;;;;;;;;1761408;81;21076;-68
2022/03/16 02:31:08;;;;;;;3.00;1.95;;;;;;;;;;1761962;81;21064;-69
2022/03/16 02:33:35;;;;;;;3.75;2.17;;;;;;;;;;1761495;81;21538;-68
2022/03/16 02:36:02;;;;;;;2.42;1.80;;;;;;;;;;1761988;81;21013;-69
2022/03/16 02:38:29;;;;;;;4.37;2.10;;;;;;;;;;1761582;81;21032;-69
2022/03/16 02:40:55;;;;;;;4.35;2.10;;;;;;;;;;1761851;81;20989;-69
2022/03/16 02:43:22;;;;;;;3.60;2.00;;;;;;;;;;1761955;81;21005;-69
2022/03/16 02:45:50;;;;;;;3.87;2.45;;;;;;;;;;1761515;81;20993;-68
2022/03/16 02:48:16;;;;;;;3.85;2.12;;;;;;;;;;1761965;81;21040;-69
2022/03/16 02:50:42;;;;;;;4.65;2.40;;;;;;;;;;1761948;81;21021;-69
2022/03/16 02:53:09;;;;;;;3.67;2.20;;;;;;;;;;1761966;81;21064;-69
2022/03/16 02:55:36;;;;;;;1.80;1.70;;;;;;;;;;1761530;81;21054;-69
2022/03/16 02:58:03;;;;;;;3.12;1.90;;;;;;;;;;1761926;81;21068;-69
2022/03/16 03:00:30;;;;;;;3.47;2.00;;;;;;;;;;1761686;81;21040;-68
2022/03/16 03:02:57;;;;;;;2.50;2.08;;;;;;;;;;1761839;81;21496;-69
2022/03/16 03:05:23;;;;;;;2.62;2.08;;;;;;;;;;1761757;81;21013;-68
2022/03/16 03:07:50;;;;;;;2.58;1.75;;;;;;;;;;1761892;81;21045;-68
2022/03/16 03:10:17;;;;;;;2.60;1.80;;;;;;;;;;1761775;81;21042;-68
2022/03/16 03:12:45;;;;;;;1.55;1.45;;;;;;;;;;1761737;81;21085;-69
2022/03/16 03:15:13;;;;;;;1.95;1.65;;;;;;;;;;1761568;81;21543;-68
2022/03/16 03:17:41;;;;;;;2.67;1.80;;;;;;;;;;1761784;81;21023;-68
2022/03/16 03:20:09;;;;;;;2.45;1.80;;;;;;;;;;1743845;81;21642;-68
2022/03/16 03:22:35;;;;;;;3.30;1.95;;;;;;;;;;1730425;82;21080;-68
2022/03/16 03:25:02;;;;;;;2.80;1.98;;;;;;;;;;1730126;82;21076;-68
2022/03/16 03:27:33;;;;;;;2.52;1.70;;;;;;;;;;1713835;83;21037;-68
2022/03/16 03:29:58;;;;;;;2.40;1.70;;;;;;;;;;1729812;82;21076;-68
2022/03/16 03:32:24;;;;;;;3.00;2.10;;;;;;;;;;1729891;82;21021;-68
2022/03/16 03:34:51;;;;;;;2.58;2.00;;;;;;;;;;1729874;82;21577;-68
2022/03/16 03:37:20;;;;;;;2.72;1.82;;;;;;;;;;1729554;82;21595;-69
2022/03/16 03:39:46;;;;;;;2.92;1.65;;;;;;;;;;1729840;82;21036;-68
2022/03/16 03:42:13;;;;;;;2.95;2.00;;;;;;;;;;1729467;83;21066;-68
2022/03/16 03:44:40;;;;;;;3.60;2.17;;;;;;;;;;1729733;83;21133;-69
2022/03/16 03:47:08;;;;;;;3.02;2.02;;;;;;;;;;1729761;83;21084;-68
2022/03/16 03:49:35;;;;;;;2.67;2.25;;;;;;;;;;1729638;83;21595;-68
2022/03/16 03:52:02;;;;;;;3.95;1.90;;;;;;;;;;1729702;82;21081;-68
2022/03/16 03:54:29;;;;;;;2.77;1.70;;;;;;;;;;1729596;83;21076;-68
2022/03/16 03:56:57;;;;;;;1.72;1.55;;;;;;;;;;1729665;82;21104;-68
2022/03/16 03:59:24;;;;;;;2.45;1.98;;;;;;;;;;1729610;83;21108;-68
2022/03/16 04:01:51;;;;;;;1.72;1.62;;;;;;;;;;1729799;82;21509;-69
2022/03/16 04:04:17;;;;;;;2.87;1.72;;;;;;;;;;1729456;82;21072;-69
2022/03/16 04:06:44;;;;;;;2.70;1.80;;;;;;;;;;1729715;82;21041;-69
2022/03/16 04:09:12;;;;;;;1.70;1.60;;;;;;;;;;1729504;83;21628;-69
2022/03/16 04:11:40;;;;;;;1.80;1.50;;;;;;;;;;1729752;83;21080;-69
2022/03/16 04:14:06;;;;;;;1.70;1.60;;;;;;;;;;1729560;83;21594;-69
2022/03/16 04:16:33;;;;;;;2.80;1.75;;;;;;;;;;1729747;82;21065;-69
2022/03/16 04:19:00;;;;;;;1.75;1.62;;;;;;;;;;1729517;81;21072;-69
2022/03/16 04:21:27;;;;;;;1.40;1.30;;;;;;;;;;1718476;82;21053;-69
2022/03/16 04:23:54;;;;;;;1.90;1.70;;;;;;;;;;1717104;83;21009;-69
2022/03/16 04:26:20;;;;;;;3.47;1.90;;;;;;;;;;1716948;83;21481;-69
2022/03/16 04:28:48;;;;;;;3.20;1.70;;;;;;;;;;1717058;83;21061;-69
2022/03/16 04:31:14;;;;;;;3.50;2.10;;;;;;;;;;1716993;83;20978;-69
2022/03/16 04:33:40;;;;;;;2.92;1.77;;;;;;;;;;1717069;83;21013;-69
2022/03/16 04:36:07;;;;;;;4.08;2.02;;;;;;;;;;1716657;83;21080;-69
2022/03/16 04:38:35;;;;;;;1.62;1.52;;;;;;;;;;1716965;83;21061;-69
2022/03/16 04:41:01;;;;;;;2.05;1.82;;;;;;;;;;1716557;83;21540;-68
2022/03/16 04:43:29;;;;;;;1.55;1.45;;;;;;;;;;1716826;83;21116;-69
2022/03/16 04:45:56;;;;;;;2.85;1.77;;;;;;;;;;1716618;83;21077;-69
2022/03/16 04:48:23;;;;;;;3.08;1.90;;;;;;;;;;1716894;83;21037;-69
2022/03/16 04:50:50;;;;;;;3.27;2.00;;;;;;;;;;1716596;83;21113;-69
2022/03/16 04:53:16;;;;;;;2.50;1.80;;;;;;;;;;1716677;83;21073;-69
2022/03/16 04:55:43;;;;;;;2.50;1.67;;;;;;;;;;1716707;83;21076;-69
2022/03/16 04:58:12;;;;;;;5.17;2.22;;;;;;;;;;1716544;83;21085;-68
2022/03/16 05:00:38;;;;;;;1.92;1.77;;;;;;;;;;1716812;83;21069;-69
2022/03/16 05:03:05;;;;;;;2.92;2.00;;;;;;;;;;1716642;83;21034;-68
2022/03/16 05:05:32;;;;;;;2.50;1.80;;;;;;;;;;1716804;83;21010;-68
2022/03/16 05:08:00;;;;;;;3.95;2.02;;;;;;;;;;1716653;83;21077;-69
2022/03/16 05:10:29;;;;;;;1.70;1.60;;;;;;;;;;1716670;83;21533;-69
2022/03/16 05:12:57;;;;;;;3.25;1.80;;;;;;;;;;1716640;83;21057;-69
2022/03/16 05:15:24;;;;;;;3.80;2.00;;;;;;;;;;1716834;83;21120;-69
2022/03/16 05:17:51;;;;;;;2.95;1.82;;;;;;;;;;1716608;83;21084;-71
2022/03/16 05:20:18;;;;;;;1.75;1.55;;;;;;;;;;1716519;82;21069;-69
2022/03/16 05:22:48;;;;;;;3.05;1.90;;;;;;;;;;1716723;83;21505;-69
2022/03/16 05:25:16;;;;;;;4.20;2.20;;;;;;;;;;1716513;83;21025;-70
2022/03/16 05:27:43;;;;;;;2.30;1.80;;;;;;;;;;1716819;83;21069;-69
2022/03/16 05:30:10;;;;;;;3.52;1.82;;;;;;;;;;1716558;83;21123;-69
2022/03/16 05:32:42;;;;;;;3.20;2.10;;;;;;;;;;1716700;83;21025;-69
2022/03/16 05:35:07;;;;;;;4.50;2.20;;;;;;;;;;1715971;83;21097;-69
2022/03/16 05:37:36;;;;;;;4.20;2.17;;;;;;;;;;1716787;83;21120;-69
2022/03/16 05:40:02;;;;;;;3.95;2.10;;;;;;;;;;1716467;83;21062;-70
2022/03/16 05:42:30;;;;;;;4.47;2.30;;;;;;;;;;1716849;83;21622;-69
2022/03/16 05:44:56;;;;;;;3.55;2.00;;;;;;;;;;1716914;83;21022;-69
2022/03/16 05:47:22;;;;;;;4.35;2.55;;;;;;;;;;1716955;83;20982;-70
2022/03/16 05:49:50;;;;;;;3.15;2.30;;;;;;;;;;1716694;83;21061;-70
2022/03/16 05:52:19;;;;;;;3.50;1.98;;;;;;;;;;1716997;83;20978;-70
2022/03/16 05:54:45;;;;;;;3.83;2.08;;;;;;;;;;1716926;83;21065;-70
2022/03/16 05:57:13;;;;;;;4.20;2.20;;;;;;;;;;1717087;83;21081;-70
2022/03/16 05:59:40;;;;;;;5.22;2.65;;;;;;;;;;1716736;83;21041;-69
2022/03/16 06:02:06;;;;;;;3.37;1.95;;;;;;;;;;1717020;83;21548;-68
2022/03/16 06:04:34;;;;;;;4.00;2.50;;;;;;;;;;1716902;83;21627;-68
2022/03/16 06:07:02;;;;;;;3.65;2.67;;;;;;;;;;1717092;83;21037;-69
2022/03/16 06:09:28;;;;;;;5.65;3.12;;;;;;;;;;1716773;83;21072;-69
2022/03/16 06:11:56;;;;;;;3.80;2.40;;;;;;;;;;1716665;83;21115;-69
2022/03/16 06:14:22;;;;;;;3.83;2.40;;;;;;;;;;1716785;83;20966;-69
2022/03/16 06:16:52;;;;;;;3.98;2.37;;;;;;;;;;1716482;83;21041;-69
2022/03/16 06:19:19;;;;;;;3.83;2.25;;;;;;;;;;1716866;82;21104;-68
2022/03/16 06:21:46;;;;;;;4.35;2.60;;;;;;;;;;1726738;83;21057;-69
2022/03/16 06:24:12;;;;;;;4.28;2.42;;;;;;;;;;1729806;83;21037;-68
2022/03/16 06:26:40;;;;;;;4.95;2.55;;;;;;;;;;1729395;83;21064;-69
2022/03/16 06:29:06;;;;;;;5.50;2.98;;;;;;;;;;1729580;82;20986;-69
2022/03/16 06:31:33;;;;;;;3.33;2.30;;;;;;;;;;1729664;82;21060;-69
2022/03/16 06:33:59;;;;;;;4.50;2.27;;;;;;;;;;1729506;83;21068;-69
2022/03/16 06:36:29;;;;;;;3.92;2.08;;;;;;;;;;1729689;82;21551;-70
2022/03/16 06:38:56;;;;;;;5.12;2.75;;;;;;;;;;1729585;82;21040;-70
2022/03/16 06:41:22;;;;;;;3.40;2.02;;;;;;;;;;1729482;82;21620;-69
2022/03/16 06:43:48;;;;;;;4.72;2.58;;;;;;;;;;1729675;83;20993;-69
2022/03/16 06:46:16;;;;;;;3.70;2.30;;;;;;;;;;1729396;83;21064;-70
2022/03/16 06:48:43;;;;;;;4.35;2.40;;;;;;;;;;1729443;82;21059;-69
2022/03/16 06:51:09;;;;;;;4.90;2.77;;;;;;;;;;1729586;82;21623;-70
2022/03/16 06:53:36;;;;;;;4.12;2.77;;;;;;;;;;1729572;83;21052;-70
2022/03/16 06:56:03;;;;;;;3.50;2.17;;;;;;;;;;1729454;83;21080;-69
2022/03/16 06:58:31;;;;;;;4.40;2.25;;;;;;;;;;1729542;83;21521;-69
2022/03/16 07:00:57;;;;;;;4.50;2.55;;;;;;;;;;1729287;82;21112;-69
2022/03/16 07:03:24;;;;;;;3.80;2.10;;;;;;;;;;1729697;82;21053;-69
2022/03/16 07:05:51;;;;;;;3.77;2.05;;;;;;;;;;1729334;83;21072;-70
2022/03/16 07:08:17;;;;;;;3.92;2.40;;;;;;;;;;1729710;83;21584;-69
2022/03/16 07:10:44;;;;;;;4.08;2.30;;;;;;;;;;1729530;82;21084;-69
2022/03/16 07:13:12;;;;;;;4.12;2.30;;;;;;;;;;1729711;82;21060;-69
2022/03/16 07:15:41;;;;;;;4.30;2.00;;;;;;;;;;1729536;82;21103;-69
2022/03/16 07:18:08;;;;;;;5.20;2.42;;;;;;;;;;1729515;82;21080;-69
2022/03/16 07:20:36;;;;;;;3.85;2.33;;;;;;;;;;1729461;81;21112;-70
2022/03/16 07:23:09;;;;;;;3.95;2.00;;;;;;;;;;1729616;82;21076;-70
2022/03/16 07:25:41;;;;;;;4.22;2.30;;;;;;;;;;1729668;82;21016;-70
2022/03/16 07:28:07;;;;;;;6.15;2.80;;;;;;;;;;1729779;82;21100;-69
2022/03/16 07:30:34;;;;;;;3.12;2.02;;;;;;;;;;1729752;83;21045;-70
2022/03/16 07:33:02;;;;;;;3.08;1.85;;;;;;;;;;1729806;83;21068;-70
2022/03/16 07:35:28;;;;;;;2.87;2.10;;;;;;;;;;1729717;82;21029;-70
2022/03/16 07:37:55;;;;;;;3.70;2.30;;;;;;;;;;1729522;83;21117;-70
2022/03/16 07:40:23;;;;;;;4.58;2.30;;;;;;;;;;1729660;82;21049;-70
2022/03/16 07:42:49;;;;;;;3.83;2.20;;;;;;;;;;1729601;83;21052;-70
2022/03/16 07:45:18;;;;;;;5.80;2.65;;;;;;;;;;1729643;82;21025;-70
2022/03/16 07:47:46;;;;;;;6.05;2.70;;;;;;;;;;1729547;83;21071;-70
2022/03/16 07:50:12;;;;;;;3.05;2.15;;;;;;;;;;1729757;83;20969;-69
2022/03/16 07:52:40;;;;;;;3.75;2.02;;;;;;;;;;1729312;82;21626;-70
2022/03/16 07:55:08;;;;;;;4.97;2.35;;;;;;;;;;1729439;83;21108;-70
2022/03/16 07:57:35;;;;;;;3.40;2.20;;;;;;;;;;1729848;82;21067;-70
2022/03/16 08:00:06;;;;;;;3.40;2.00;;;;;;;;;;1729490;83;21036;-70
2022/03/16 08:02:34;;;;;;;4.20;2.40;;;;;;;;;;1729777;83;21044;-70
2022/03/16 08:05:01;;;;;;;1.98;1.75;;;;;;;;;;1729738;82;21017;-70
2022/03/16 08:07:27;;;;;;;3.02;1.98;;;;;;;;;;1729860;82;21046;-70
2022/03/16 08:09:54;;;;;;;2.55;1.62;;;;;;;;;;1729457;83;21122;-70
2022/03/16 08:12:21;;;;;;;6.08;2.17;;;;;;;;;;1729812;82;21005;-70
2022/03/16 08:14:50;;;;;;;1.95;1.62;;;;;;;;;;1729295;82;21111;-71
2022/03/16 08:17:17;;;;;;;2.30;1.70;;;;;;;;;;1729448;83;21104;-70
2022/03/16 08:19:43;;;;;;;3.30;1.98;;;;;;;;;;1729632;81;21104;-70
2022/03/16 08:22:10;;;;;;;2.75;1.87;;;;;;;;;;1729534;82;21524;-70
2022/03/16 08:24:37;;;;;;;4.53;1.70;;;;;;;;;;1729496;83;21044;-70
2022/03/16 08:27:04;;;;;;;2.37;1.72;;;;;;;;;;1729704;82;21037;-71
2022/03/16 08:29:31;;;;;;;2.42;1.80;;;;;;;;;;1729671;82;21678;-71
2022/03/16 08:31:58;;;;;;;2.30;1.72;;;;;;;;;;1729462;83;21058;-71
2022/03/16 08:34:25;;;;;;;3.72;2.20;;;;;;;;;;1729813;82;21017;-71
2022/03/16 08:36:52;;;;;;;2.60;2.05;;;;;;;;;;1729792;83;21072;-71
2022/03/16 08:39:19;;;;;;;2.55;1.82;;;;;;;;;;1729589;82;21631;-71
2022/03/16 08:41:46;;;;;;;2.67;1.90;;;;;;;;;;1729564;82;21096;-71
2022/03/16 08:44:12;;;;;;;2.37;1.82;;;;;;;;;;1729897;82;21021;-71
2022/03/16 08:46:39;;;;;;;3.20;2.20;;;;;;;;;;1729663;83;21334;-70
2022/03/16 08:49:06;;;;;;;3.15;1.92;;;;;;;;;;1729887;82;21029;-70
2022/03/16 08:51:32;;;;;;;3.75;1.87;;;;;;;;;;1729765;82;20973;-70
2022/03/16 08:53:59;;;;;;;3.17;1.95;;;;;;;;;;1729664;82;21076;-72
2022/03/16 08:56:25;;;;;;;4.22;2.30;;;;;;;;;;1729771;82;21536;-71
2022/03/16 08:58:53;;;;;;;3.22;2.35;;;;;;;;;;1729568;83;21579;-70
2022/03/16 09:01:21;;;;;;;3.55;1.90;;;;;;;;;;1729511;82;21180;-71
2022/03/16 09:03:49;;;;;;;2.33;1.80;;;;;;;;;;1729773;83;21104;-71
2022/03/16 09:06:16;;;;;;;2.80;1.92;;;;;;;;;;1729723;83;21040;-70
2022/03/16 09:08:43;;;;;;;5.35;2.35;;;;;;;;;;1729738;82;21076;-70
2022/03/16 09:11:09;;;;;;;2.77;1.90;;;;;;;;;;1729741;82;21037;-70
2022/03/16 09:13:36;;;;;;;2.37;1.80;;;;;;;;;;1729741;82;21536;-70
2022/03/16 09:16:03;;;;;;;3.05;2.00;;;;;;;;;;1729443;83;21072;-70
2022/03/16 09:18:31;;;;;;;3.42;2.15;;;;;;;;;;1729694;83;21072;-70
2022/03/16 09:21:00;;;;;;;2.00;1.80;;;;;;;;;;1728114;81;21072;-70
2022/03/16 09:23:32;;;;;;;2.65;2.00;;;;;;;;;;1716695;83;21037;-70
2022/03/16 09:25:56;;;;;;;3.37;1.67;;;;;;;;;;1716059;83;21601;-70
2022/03/16 09:28:22;;;;;;;2.55;1.85;;;;;;;;;;1717074;83;21054;-71
2022/03/16 09:30:49;;;;;;;3.02;1.90;;;;;;;;;;1716465;83;21618;-71
2022/03/16 09:33:17;;;;;;;2.95;1.65;;;;;;;;;;1716798;83;21037;-70
2022/03/16 09:35:48;;;;;;;2.77;1.57;;;;;;;;;;1716765;83;21080;-71
2022/03/16 09:38:13;;;;;;;3.87;2.20;;;;;;;;;;1716005;83;21497;-71
2022/03/16 09:40:41;;;;;;;2.75;1.85;;;;;;;;;;1716705;83;21562;-71
2022/03/16 09:43:08;;;;;;;3.05;1.80;;;;;;;;;;1716877;83;21348;-70
2022/03/16 09:45:46;;;;;;;3.12;2.00;;;;;;;;;;1716937;83;21080;-71
2022/03/16 09:48:13;;;;;;;2.10;1.70;;;;;;;;;;1716895;83;22174;-70
2022/03/16 09:50:42;;;;;;;2.62;1.75;;;;;;;;;;1716917;83;21065;-70
2022/03/16 09:53:12;;;;;;;2.52;1.87;;;;;;;;;;1716811;83;21038;-70
2022/03/16 09:55:39;;;;;;;2.50;1.70;;;;;;;;;;1706573;83;21021;-70
2022/03/16 09:58:06;;;;;;;2.10;1.60;;;;;;;;;;1716417;83;21069;-70
2022/03/16 10:00:34;;;;;;;2.05;1.70;;;;;;;;;;1716683;83;20986;-71
2022/03/16 10:03:02;;;;;;;2.55;1.70;;;;;;;;;;1716416;83;21096;-71
2022/03/16 10:05:30;;;;;;;4.17;2.12;;;;;;;;;;1706436;83;21078;-70
2022/03/16 10:08:02;;;;;;;2.72;1.80;;;;;;;;;;1716772;83;21633;-71
2022/03/16 10:13:23;;;;;;;3.00;1.87;;;;;;;;;;1716639;83;21504;-70
2022/03/16 10:15:51;;;;;;;2.00;1.80;;;;;;;;;;1716691;83;21065;-71
2022/03/16 10:18:19;;;;;;;3.37;2.15;;;;;;;;;;1716689;83;21076;-70
2022/03/16 10:20:46;;;;;;;2.42;1.80;;;;;;;;;;1706688;83;21093;-70
2022/03/16 10:23:17;;;;;;;2.95;2.25;;;;;;;;;;1728660;83;21009;-70
2022/03/16 10:25:51;;;;;;;1.90;1.70;;;;;;;;;;1729368;82;21607;-70
2022/03/16 10:28:16;;;;;;;3.22;1.90;;;;;;;;;;1729792;82;21033;-70
2022/03/16 10:30:57;;;;;;;2.92;1.77;;;;;;;;;;1729673;83;21029;-71
2022/03/16 10:33:29;;;;;;;1.90;1.67;;;;;;;;;;1729587;83;21081;-71
2022/03/16 10:36:06;;;;;;;3.35;1.77;;;;;;;;;;1729776;82;21024;-71
2022/03/16 10:38:39;;;;;;;3.15;1.77;;;;;;;;;;1729803;83;21043;-70
2022/03/16 10:46:54;;;;;;;2.45;1.85;;;;;;;;;;1729871;82;20962;-70
2022/03/16 10:49:22;;;;;;;2.12;1.55;;;;;;;;;;1729575;82;21068;-70
2022/03/16 10:52:09;;;;;;;2.33;1.75;;;;;;;;;;1729799;82;21552;-71
2022/03/16 10:54:36;;;;;;;3.00;1.80;;;;;;;;;;1729514;82;21112;-71
2022/03/16 10:57:03;;;;;;;2.85;1.85;;;;;;;;;;1729773;82;21040;-71
2022/03/16 10:59:31;;;;;;;2.30;1.60;;;;;;;;;;1729739;82;21532;-71
2022/03/16 11:02:05;;;;;;;3.10;1.60;;;;;;;;;;1729459;83;21076;-70
2022/03/16 11:04:32;;;;;;;2.02;1.60;;;;;;;;;;1729997;82;22065;-71
2022/03/16 11:07:02;;;;;;;3.67;2.12;;;;;;;;;;1729647;83;21053;-71
2022/03/16 11:09:27;;;;;;;2.27;1.67;;;;;;;;;;1729339;82;21021;-71
2022/03/16 11:14:41;;;;;;;3.95;1.90;;;;;;;;;;1729801;82;21076;-71
2022/03/16 11:17:08;;;;;;;2.33;1.70;;;;;;;;;;1729811;82;21119;-70
2022/03/16 11:19:34;;;;;;;1.98;1.70;;;;;;;;;;1729806;81;21084;-71
2022/03/16 11:22:03;;;;;;;2.10;1.90;;;;;;;;;;1729548;83;21057;-71
2022/03/16 11:24:30;;;;;;;2.58;1.90;;;;;;;;;;1729530;83;21111;-71
2022/03/16 11:27:15;;;;;;;1.98;1.60;;;;;;;;;;1729695;82;21013;-71
2022/03/16 11:29:44;;;;;;;2.45;1.50;;;;;;;;;;1729892;82;21525;-70
2022/03/16 11:32:12;;;;;;;3.20;2.00;;;;;;;;;;1725577;83;21520;-70
2022/03/16 11:34:39;;;;;;;3.40;2.05;;;;;;;;;;1729577;82;21053;-71
2022/03/16 11:37:10;;;;;;;1.75;1.50;;;;;;;;;;1729524;83;21010;-71
2022/03/16 11:39:44;;;;;;;3.90;2.02;;;;;;;;;;1729952;82;21031;-70
2022/03/16 11:42:14;;;;;;;2.58;1.90;;;;;;;;;;1729181;82;21053;-71
2022/03/16 11:44:41;;;;;;;2.98;1.98;;;;;;;;;;1729788;83;21512;-71
2022/03/16 11:47:13;;;;;;;2.95;1.80;;;;;;;;;;1729562;82;21080;-71
2022/03/16 11:49:44;;;;;;;2.12;1.60;;;;;;;;;;1729923;83;21480;-71
2022/03/16 11:52:08;;;;;;;2.33;1.60;;;;;;;;;;1729723;83;21040;-71
2022/03/16 11:54:43;;;;;;;2.27;1.80;;;;;;;;;;1729877;83;21009;-71
2022/03/16 11:57:09;;;;;;;2.50;1.90;;;;;;;;;;1729661;83;21108;-71
2022/03/16 11:59:40;;;;;;;2.30;1.60;;;;;;;;;;1729905;83;21041;-71
2022/03/16 12:02:06;;;;;;;2.90;1.70;;;;;;;;;;1729605;82;21577;-71
2022/03/16 12:04:35;;;;;;;2.10;1.60;;;;;;;;;;1729995;82;21031;-71
2022/03/16 12:07:06;;;;;;;2.70;1.70;;;;;;;;;;1729793;82;21080;-70
2022/03/16 12:09:38;;;;;;;1.98;1.45;;;;;;;;;;1729685;83;20993;-70
2022/03/16 12:15:15;;;;;;;4.28;2.27;;;;;;;;;;1729789;82;21068;-71
2022/03/16 12:17:44;;;;;;;3.17;1.60;;;;;;;;;;1729344;83;21029;-71
2022/03/16 12:20:13;;;;;;;3.67;1.87;;;;;;;;;;1727099;81;21148;-71
2022/03/16 12:22:46;;;;;;;2.70;1.87;;;;;;;;;;1729369;83;21640;-71
2022/03/16 12:25:14;;;;;;;2.45;1.90;;;;;;;;;;1729668;83;21076;-71
2022/03/16 12:39:27;;;;;;;3.12;2.22;;;;;;;;;;1810016;79;22964;-70
2022/03/16 12:44:45;;;;;;;3.08;1.87;;;;;;;;;;1753737;81;21040;-70
2022/03/16 12:47:13;;;;;;;3.58;1.90;;;;;;;;;;1770153;80;21118;-71
2022/03/16 12:49:42;;;;;;;1.80;1.62;;;;;;;;;;1767494;81;21020;-71
2022/03/16 12:52:09;;;;;;;2.50;1.60;;;;;;;;;;1770214;81;21099;-71
2022/03/16 12:54:36;;;;;;;2.62;2.00;;;;;;;;;;1769966;81;21535;-69
2022/03/16 12:57:08;;;;;;;2.35;1.85;;;;;;;;;;1770410;81;21036;-70
2022/03/16 12:59:56;;;;;;;3.27;2.10;;;;;;;;;;1769902;80;21103;-72
2022/03/16 13:02:23;;;;;;;3.10;1.98;;;;;;;;;;1770424;80;20949;-71
2022/03/16 13:04:53;;;;;;;2.65;1.98;;;;;;;;;;1770190;81;21071;-71
2022/03/16 13:07:21;;;;;;;3.95;2.25;;;;;;;;;;1770245;81;21067;-71
2022/03/16 13:09:47;;;;;;;3.77;2.08;;;;;;;;;;1769973;81;21025;-70
2022/03/16 13:12:15;;;;;;;2.98;2.00;;;;;;;;;;1770397;81;21025;-70
2022/03/16 13:14:46;;;;;;;3.75;2.27;;;;;;;;;;1769910;80;21539;-70
2022/03/16 13:17:15;;;;;;;2.20;1.77;;;;;;;;;;1770343;80;21044;-70
2022/03/16 13:19:46;;;;;;;4.37;2.10;;;;;;;;;;1769873;80;21115;-70
2022/03/16 13:22:18;;;;;;;2.10;1.60;;;;;;;;;;1770033;81;21028;-70
2022/03/16 13:24:53;;;;;;;2.60;1.67;;;;;;;;;;1769888;80;21048;-70
2022/03/16 13:27:21;;;;;;;1.72;1.57;;;;;;;;;;1770554;80;20997;-70
2022/03/16 13:29:50;;;;;;;2.72;2.17;;;;;;;;;;1743719;80;21971;-70
2022/03/16 13:32:18;;;;;;;2.30;1.77;;;;;;;;;;1736353;82;21059;-70
2022/03/16 13:34:45;;;;;;;3.10;2.45;;;;;;;;;;1736125;82;21058;-71
2022/03/16 13:37:28;;;;;;;3.58;2.35;;;;;;;;;;1736114;81;21035;-71
2022/03/16 13:39:56;;;;;;;2.58;1.70;;;;;;;;;;1736312;83;22113;-69
2022/03/16 13:42:25;;;;;;;3.47;2.42;;;;;;;;;;1736022;82;21070;-70
2022/03/16 13:44:53;;;;;;;3.45;2.00;;;;;;;;;;1735994;83;21059;-69
2022/03/16 13:47:20;;;;;;;2.42;2.10;;;;;;;;;;1736002;83;21078;-70
2022/03/16 13:49:50;;;;;;;2.30;1.85;;;;;;;;;;1735910;83;21062;-70
2022/03/16 13:52:22;;;;;;;2.80;2.25;;;;;;;;;;1735860;83;21023;-70
2022/03/16 13:54:46;;;;;;;2.58;1.50;;;;;;;;;;1735212;83;21425;-70
2022/03/16 13:57:14;;;;;;;3.47;1.95;;;;;;;;;;1735519;83;21060;-69
2022/03/16 13:59:41;;;;;;;2.85;2.15;;;;;;;;;;1735757;82;21031;-70
2022/03/16 14:02:09;;;;;;;1.90;1.67;;;;;;;;;;1735700;82;21547;-70
2022/03/16 14:04:39;;;;;;;2.80;2.08;;;;;;;;;;1731670;83;21094;-70
2022/03/16 14:07:23;;;;;;;4.00;2.10;;;;;;;;;;1735805;82;21075;-70
2022/03/16 14:09:53;;;;;;;2.45;1.65;;;;;;;;;;1706641;83;21510;-69
2022/03/16 14:12:20;;;;;;;4.50;3.00;;;;;;;;;;1735425;82;21066;-69
2022/03/16 14:14:47;;;;;;;4.08;2.15;;;;;;;;;;1735606;82;20991;-70
2022/03/16 14:17:14;;;;;;;2.95;1.90;;;;;;;;;;1735407;83;21000;-69
2022/03/16 14:19:44;;;;;;;4.30;2.37;;;;;;;;;;1735602;82;21550;-69
2022/03/16 14:22:13;;;;;;;3.80;2.30;;;;;;;;;;1735578;83;21075;-69
2022/03/16 14:24:40;;;;;;;2.62;1.80;;;;;;;;;;1735724;83;21035;-70
2022/03/16 14:27:16;;;;;;;3.40;2.35;;;;;;;;;;1735714;83;21004;-69
2022/03/16 14:29:43;;;;;;;3.10;2.15;;;;;;;;;;1735689;81;21573;-69
2022/03/16 14:32:10;;;;;;;1.90;1.70;;;;;;;;;;1735462;82;21118;-69
2022/03/16 14:34:37;;;;;;;3.27;2.08;;;;;;;;;;1735635;83;21530;-69
2022/03/16 14:37:04;;;;;;;2.95;2.15;;;;;;;;;;1735484;81;21028;-69
2022/03/16 14:39:30;;;;;;;2.90;2.00;;;;;;;;;;1735497;82;21031;-68
2022/03/16 14:41:57;;;;;;;3.80;2.27;;;;;;;;;;1735875;82;21590;-69
2022/03/16 14:44:24;;;;;;;3.27;1.90;;;;;;;;;;1735607;82;21399;-69
2022/03/16 14:46:52;;;;;;;3.08;1.87;;;;;;;;;;1735888;83;21051;-69
2022/03/16 14:49:19;;;;;;;2.83;2.02;;;;;;;;;;1735865;82;21046;-69
2022/03/16 14:51:46;;;;;;;3.65;2.10;;;;;;;;;;1735727;83;21050;-70
2022/03/16 14:54:13;;;;;;;2.72;1.80;;;;;;;;;;1735590;82;21067;-69
2022/03/16 14:56:40;;;;;;;2.10;1.90;;;;;;;;;;1735879;83;21035;-70
2022/03/16 14:59:08;;;;;;;3.17;1.90;;;;;;;;;;1735538;82;21059;-70
2022/03/16 15:01:34;;;;;;;3.02;2.17;;;;;;;;;;1735920;82;21004;-69
2022/03/16 15:04:01;;;;;;;3.08;1.80;;;;;;;;;;1735805;82;21098;-69
2022/03/16 15:06:28;;;;;;;2.67;2.15;;;;;;;;;;1735456;82;21067;-68
2022/03/16 15:08:54;;;;;;;3.25;2.05;;;;;;;;;;1735766;82;21019;-69
2022/03/16 15:11:21;;;;;;;3.42;2.12;;;;;;;;;;1735629;83;21585;-69
2022/03/16 15:13:49;;;;;;;1.50;1.40;;;;;;;;;;1735821;83;21106;-69
2022/03/16 15:16:17;;;;;;;2.75;2.00;;;;;;;;;;1735949;82;21047;-68
2022/03/16 15:18:45;;;;;;;3.60;2.33;;;;;;;;;;1735643;82;21083;-69
2022/03/16 15:21:12;;;;;;;2.58;2.10;;;;;;;;;;1735389;83;21601;-69